WEATHER/FLIGHT PLANNING

Hattiesburg Radar

 

 

 

 

Weather Links

Flight Planning Links

 

METAR

2016/05/27 20:53 KHBG 272053Z AUTO 16014G21KT 10SM CLR 29/18 A2992 RMK AO2 SLP130 T02940178 56030

TAF

2016/05/27 18:51 TAF KHBG 271749Z 2718/2818 15010G18KT P6SM SCT040 BKN150 FM280200 15004KT P6SM OVC120